SHMÚ vydal hydrologické výstrahy na   Povodeň z trvalého dažďa Zobraziť výstrahy

TAF

Letisková predpoveď TAF

Informácie o správe TAF

25.05.2019 - 11:00 UTC

TAF LZIB 251100Z 2512/2612 28005KT CAVOK
    TEMPO 2512/2515 9999 SCT047
    TEMPO 2520/2602 VRB02KT
    BECMG 2523/2601 SCT040=
TAF LZKZ 251100Z 2512/2612 24005KT 9999 FEW045 BKN060
    TEMPO 2512/2517 32010KT 7000 -SHRA SCT040CB BKN045
    BECMG 2517/2519 VRB02KT CAVOK
    BECMG 2609/2611 9999 FEW040=
TAF LZTT 251100Z 2512/2612 04005KT 9999 SCT030
    PROB40 TEMPO 2512/2515 -SHRA SCT030TCU BKN045
    BECMG 2515/2517 VRB02KT CAVOK
    BECMG 2607/2609 9999 SCT045 BKN070=

25.05.2019 - 11:00 UTC

TAF LZSL 251100Z 2512/2521 21005KT CAVOK
    TEMPO 2512/2515 9999 FEW040
    PROB40 TEMPO 2512/2515 -SHRA SCT040TCU BKN045
    BECMG 2512/2514 36005KT=
TAF LZPP 251100Z 2512/2521 36005KT CAVOK
    TEMPO 2512/2514 9999 SCT045
    BECMG 2518/2520 10005KT=
TAF LZZI 251100Z 2512/2521 27004KT 9999 SCT045
    PROB30 TEMPO 2512/2516 -SHRA SCT040TCU BKN045
    TEMPO 2515/2520 CAVOK=

25.05.2019 - 08:00 UTC

TAF COR LZZI 250856Z 2509/2518 VRB02KT 9999 FEW020
    BECMG 2509/2511 CAVOK
    PROB30 TEMPO 2512/2516 13005KT -SHRA SCT030TCU BKN035=

25.05.2019 - 08:00 UTC

TAF LZSL 250800Z 2509/2518 VRB02KT CAVOK
    TEMPO 2509/2515 9999 FEW040
    PROB40 TEMPO 2511/2515 -SHRA SCT040TCU BKN045
    BECMG 2511/2513 34007KT=
TAF LZPP 250800Z 2509/2518 34005KT CAVOK
    TEMPO 2510/2513 9999 SCT040
    BECMG 2514/2516 06005KT=
TAF LZZI 250800Z 2509/2518 VRB02KT 9999 FEW005
    BECMG 2509/2510 CAVOK
    PROB30 TEMPO 2512/2516 13005KT -SHRA SCT040TCU BKN045=

25.05.2019 - 05:00 UTC

TAF LZIB 250500Z 2506/2606 VRB02KT CAVOK
    TEMPO 2508/2515 29007KT 9999 SCT047
    BECMG 2602/2604 30005KT=
TAF LZKZ 250500Z 2506/2606 VRB02KT 9999 SCT048 BKN070
    BECMG 2506/2508 23004KT
    PROB40 TEMPO 2511/2515 35010KT 7000 -SHRA SCT040CB BKN045
    BECMG 2516/2518 35004KT CAVOK=
TAF LZTT 250500Z 2506/2606 27010KT 9999 FEW004
    BECMG 2506/2508 06008KT FEW027 BKN043
    TEMPO 2509/2515 -SHRA SCT030TCU BKN045
    BECMG 2515/2517 CAVOK
    BECMG 2517/2519 25004KT=

25.05.2019 - 05:00 UTC

TAF LZSL 250500Z 2506/2515 VRB02KT 4000 BR FEW005
    TEMPO 2506/2507 1500 BCFG BKN003
    BECMG 2506/2508 9999 SCT030
    PROB40 TEMPO 2511/2515 -SHRA SCT040TCU BKN045=
TAF LZPP 250500Z 2506/2515 02007KT CAVOK
    TEMPO 2509/2512 9999 SCT040=
TAF LZZI 250500Z 2506/2515 03002KT 4000 BR SCT005
    TEMPO 2506/2507 1200 BCFG BKN003
    BECMG 2506/2508 9999 SCT030
    PROB40 TEMPO 2511/2515 -SHRA SCT040TCU BKN045=

25.05.2019 - 02:00 UTC

TAF AMD LZSL 250439Z 2504/2512 VRB02KT 3000 BCFG BKN003
    TEMPO 2504/2506 0300 FG BKN001
    BECMG 2506/2508 9999 SCT030=

25.05.2019 - 02:00 UTC

TAF LZSL 250200Z 2503/2512 VRB02KT CAVOK
    TEMPO 2503/2506 3000 BCFG SCT003
    PROB30 TEMPO 2503/2505 0500 FG BKN002
    BECMG 2508/2510 9999 SCT030=
TAF LZZI 250200Z 2503/2512 03002KT 4000 BR SCT005
    TEMPO 2503/2506 1200 BCFG BKN003
    PROB40 TEMPO 2503/2505 0400 FG OVC001
    BECMG 2506/2508 9999 SCT030=

skok na menu ↑


skok na začiatok stránky ↑